createdAt,value
2019-01-02T00:00:58.832Z,98903.77
2019-01-02T00:06:04.112Z,98873.83
2019-01-02T00:11:09.579Z,98861.13
2019-01-02T00:16:14.995Z,98851.67
2019-01-02T00:21:20.539Z,98853.64
2019-01-02T00:26:25.996Z,98863.60
2019-01-02T00:31:31.389Z,98854.20
2019-01-02T00:36:37.333Z,98838.14
2019-01-02T00:41:42.543Z,98842.18
2019-01-02T00:46:48.138Z,98854.55
2019-01-02T00:51:53.682Z,98846.27
2019-01-02T00:56:58.878Z,98835.98
2019-01-02T01:02:04.172Z,98853.73
2019-01-02T01:07:09.377Z,98851.96
2019-01-02T01:12:14.576Z,98870.50
2019-01-02T01:17:20.082Z,98853.75
2019-01-02T01:22:25.881Z,98858.14
2019-01-02T01:27:31.625Z,98878.62
2019-01-02T01:32:37.210Z,98879.03
2019-01-02T01:37:47.580Z,98876.36
2019-01-02T01:42:52.921Z,98873.13
2019-01-02T01:47:59.414Z,98882.53
2019-01-02T01:53:05.289Z,98892.25
2019-01-02T01:58:10.495Z,98889.81
2019-01-02T02:03:16.111Z,98897.66
2019-01-02T02:08:21.551Z,98892.64
2019-01-02T02:13:26.743Z,98911.27
2019-01-02T02:18:31.930Z,98910.97
2019-01-02T02:23:37.484Z,98914.50
2019-01-02T02:28:42.765Z,98908.33
2019-01-02T02:33:47.968Z,98908.48
2019-01-02T02:38:53.555Z,98931.98
2019-01-02T02:43:59.219Z,98914.56
2019-01-02T02:49:05.090Z,98930.49
2019-01-02T02:54:10.569Z,98921.09
2019-01-02T02:59:16.375Z,98933.14
2019-01-02T03:04:21.859Z,98944.20
2019-01-02T03:09:27.630Z,98916.64
2019-01-02T03:14:32.873Z,98938.52
2019-01-02T03:19:38.051Z,98941.30
2019-01-02T03:24:43.991Z,98938.36
2019-01-02T03:29:49.456Z,98952.10
2019-01-02T03:34:54.735Z,98941.03
2019-01-02T03:40:00.808Z,98957.47
2019-01-02T03:45:08.441Z,98960.62
2019-01-02T03:50:15.635Z,98983.98
2019-01-02T03:55:20.818Z,98993.54
2019-01-02T04:00:26.021Z,99008.38
2019-01-02T04:05:32.437Z,98987.21
2019-01-02T04:10:37.680Z,99003.23
2019-01-02T04:15:42.886Z,99011.13
2019-01-02T04:20:48.085Z,99025.84
2019-01-02T04:25:53.283Z,99019.11
2019-01-02T04:30:58.526Z,99018.56
2019-01-02T04:36:04.048Z,99030.23
2019-01-02T04:41:09.302Z,99032.66
2019-01-02T04:46:14.926Z,99046.98
2019-01-02T04:51:20.478Z,99039.59
2019-01-02T04:56:29.790Z,99038.94
2019-01-02T05:01:35.269Z,99036.59
2019-01-02T05:06:40.601Z,99047.13
2019-01-02T05:11:45.784Z,99054.72
2019-01-02T05:16:51.411Z,99057.88
2019-01-02T05:21:56.981Z,99068.86
2019-01-02T05:27:03.090Z,99071.14
2019-01-02T05:32:08.582Z,99072.73
2019-01-02T05:37:13.877Z,99081.96
2019-01-02T05:42:19.146Z,99096.59
2019-01-02T05:47:24.421Z,99094.31
2019-01-02T05:52:29.661Z,99091.09
2019-01-02T05:57:35.583Z,99100.16
2019-01-02T06:02:40.952Z,99119.04
2019-01-02T06:07:46.467Z,99128.41
2019-01-02T06:12:51.668Z,99134.30
2019-01-02T06:17:57.259Z,99138.31
2019-01-02T06:23:02.592Z,99143.70
2019-01-02T06:28:08.293Z,99143.92
2019-01-02T06:33:13.471Z,99149.22
2019-01-02T06:38:18.903Z,99148.75
2019-01-02T06:43:24.254Z,99157.99
2019-01-02T06:48:29.809Z,99155.05
2019-01-02T06:53:34.986Z,99159.83
2019-01-02T06:58:40.328Z,99163.63
2019-01-02T07:03:45.597Z,99166.55
2019-01-02T07:08:50.843Z,99178.52
2019-01-02T07:13:56.455Z,99173.69
2019-01-02T07:19:01.924Z,99170.47
2019-01-02T07:24:07.301Z,99173.52
2019-01-02T07:29:12.605Z,99188.15
2019-01-02T07:34:34.765Z,99195.87
2019-01-02T07:40:18.070Z,99195.20
2019-01-02T07:45:59.395Z,99200.03
2019-01-02T07:51:56.964Z,99210.58
2019-01-02T07:57:38.413Z,99208.52
2019-01-02T08:03:07.756Z,99227.58
2019-01-02T08:09:05.428Z,99219.74
2019-01-02T08:15:03.286Z,99219.79
2019-01-02T08:21:00.078Z,99226.86
2019-01-02T08:26:33.876Z,99230.27
2019-01-02T08:32:20.002Z,99243.69
2019-01-02T08:37:49.488Z,99252.59
2019-01-02T08:43:36.430Z,99253.59
2019-01-02T08:48:50.294Z,99269.35
2019-01-02T08:54:51.984Z,99266.28
2019-01-02T09:00:42.606Z,99286.37
2019-01-02T09:06:38.085Z,99282.81
2019-01-02T09:12:18.942Z,99290.06
2019-01-02T09:17:51.759Z,99303.58
2019-01-02T09:23:17.608Z,99313.20
2019-01-02T09:29:08.862Z,99313.49
2019-01-02T09:34:58.723Z,99326.70
2019-01-02T09:40:43.747Z,99355.33
2019-01-02T09:46:17.653Z,99325.66
2019-01-02T09:52:13.014Z,99328.89
2019-01-02T09:57:52.002Z,99344.23
2019-01-02T10:03:43.583Z,99353.17
2019-01-02T10:09:30.858Z,99347.11
2019-01-02T10:15:16.552Z,99339.48
2019-01-02T10:20:44.056Z,99345.55
2019-01-02T10:26:29.534Z,99332.88
2019-01-02T10:32:15.586Z,99325.12
2019-01-02T10:37:47.230Z,99311.20
2019-01-02T10:43:37.719Z,99345.86
2019-01-02T10:49:18.550Z,99357.69
2019-01-02T10:54:51.324Z,99396.33
2019-01-02T11:00:16.951Z,99381.95
2019-01-02T11:06:14.628Z,99421.42
2019-01-02T11:12:02.729Z,99400.81
2019-01-02T11:18:07.084Z,99390.41
2019-01-02T11:23:54.716Z,99401.59
2019-01-02T11:29:20.185Z,99411.16
2019-01-02T11:34:55.513Z,99420.70
2019-01-02T11:40:34.374Z,99396.38
2019-01-02T11:45:39.605Z,99406.47
2019-01-02T11:50:44.820Z,99411.34
2019-01-02T11:55:50.086Z,99423.28
2019-01-02T12:00:55.288Z,99439.95
2019-01-02T12:06:00.617Z,99415.13
2019-01-02T12:11:05.866Z,99422.92
2019-01-02T12:16:11.390Z,99418.67
2019-01-02T12:21:16.964Z,99410.18
2019-01-02T12:26:22.640Z,99427.16
2019-01-02T12:31:28.319Z,99447.45
2019-01-02T12:36:33.785Z,99463.93
2019-01-02T12:41:38.961Z,99458.38
2019-01-02T12:46:44.197Z,99446.53
2019-01-02T12:51:49.381Z,99486.92
2019-01-02T12:56:55.836Z,99452.45
2019-01-02T13:02:37.828Z,99454.70
2019-01-02T13:08:27.524Z,99462.67
2019-01-02T13:14:38.402Z,99485.56
2019-01-02T13:20:18.190Z,99488.92
2019-01-02T13:25:29.630Z,99507.71
2019-01-02T13:31:34.097Z,99516.06
2019-01-02T13:37:35.857Z,99534.60
2019-01-02T13:42:52.825Z,99538.11
2019-01-02T13:48:57.492Z,99539.33
2019-01-02T13:54:02.804Z,99543.75
2019-01-02T13:59:08.395Z,99543.42
2019-01-02T14:04:13.576Z,99567.14
2019-01-02T14:09:18.837Z,99567.75
2019-01-02T14:14:24.501Z,99576.46
2019-01-02T14:19:29.852Z,99587.62
2019-01-02T14:24:35.855Z,99585.81
2019-01-02T14:29:41.492Z,99577.97
2019-01-02T14:34:46.771Z,99585.00
2019-01-02T14:39:52.022Z,99596.36
2019-01-02T14:44:58.300Z,99578.48
2019-01-02T14:50:03.647Z,99578.84
2019-01-02T14:55:08.840Z,99579.08
2019-01-02T15:00:14.491Z,99594.65
2019-01-02T15:05:20.048Z,99602.14
2019-01-02T15:10:25.281Z,99638.73
2019-01-02T15:15:30.912Z,99641.15
2019-01-02T15:20:36.111Z,99666.91
2019-01-02T15:25:41.533Z,99695.60
2019-01-02T15:30:46.961Z,99705.58
2019-01-02T15:35:52.171Z,99690.72
2019-01-02T15:40:57.811Z,99695.45
2019-01-02T15:46:03.054Z,99690.08
2019-01-02T15:51:08.266Z,99699.73
2019-01-02T15:56:13.785Z,99702.50
2019-01-02T16:01:19.479Z,99698.50
2019-01-02T16:06:25.006Z,99705.52
2019-01-02T16:11:31.011Z,99700.64
2019-01-02T16:16:36.254Z,99709.59
2019-01-02T16:21:41.566Z,99721.08
2019-01-02T16:26:47.893Z,99711.05
2019-01-02T16:31:53.184Z,99729.55
2019-01-02T16:36:59.098Z,99733.95
2019-01-02T16:42:04.293Z,99727.88
2019-01-02T16:47:09.498Z,99744.59
2019-01-02T16:52:14.972Z,99749.07
2019-01-02T16:57:20.153Z,99757.34
2019-01-02T17:02:25.430Z,99760.40
2019-01-02T17:07:30.596Z,99774.03
2019-01-02T17:12:36.170Z,99773.93
2019-01-02T17:17:41.380Z,99783.53
2019-01-02T17:22:46.558Z,99780.13
2019-01-02T17:27:51.733Z,99791.41
2019-01-02T17:32:56.915Z,99802.19
2019-01-02T17:38:02.103Z,99800.20
2019-01-02T17:43:07.664Z,99799.25
2019-01-02T17:48:13.281Z,99803.84
2019-01-02T17:53:19.077Z,99824.12
2019-01-02T17:58:24.341Z,99814.16
2019-01-02T18:03:29.518Z,99826.28
2019-01-02T18:08:34.765Z,99835.41
2019-01-02T18:13:39.993Z,99839.66
2019-01-02T18:18:45.331Z,99845.11
2019-01-02T18:23:51.672Z,99858.38
2019-01-02T18:28:57.216Z,99844.16
2019-01-02T18:34:02.742Z,99859.53
2019-01-02T18:39:09.850Z,99876.14
2019-01-02T18:44:20.427Z,99889.31
2019-01-02T18:49:22.017Z,99879.34
2019-01-02T18:54:27.290Z,99888.19
2019-01-02T18:59:32.692Z,99891.35
2019-01-02T19:04:39.162Z,99884.00
2019-01-02T19:09:45.884Z,99898.71
2019-01-02T19:14:52.081Z,99906.30
2019-01-02T19:19:57.374Z,99909.63
2019-01-02T19:25:02.846Z,99919.42
2019-01-02T19:30:11.096Z,99923.38
2019-01-02T19:35:16.432Z,99952.58
2019-01-02T19:40:21.861Z,99938.19
2019-01-02T19:45:27.472Z,99942.01
2019-01-02T19:50:32.699Z,99943.89
2019-01-02T19:55:38.261Z,99944.23
2019-01-02T20:00:45.002Z,99942.05
2019-01-02T20:05:51.317Z,99945.81
2019-01-02T20:10:57.387Z,99953.70
2019-01-02T20:16:02.747Z,99955.78
2019-01-02T20:21:08.019Z,99948.83
2019-01-02T20:26:14.036Z,99937.80
2019-01-02T20:31:20.389Z,99948.95
2019-01-02T20:36:26.647Z,99943.28
2019-01-02T20:46:36.121Z,99947.96
2019-01-02T20:51:41.431Z,99945.66
2019-01-02T20:56:48.382Z,99942.59
2019-01-02T21:01:53.862Z,99933.47
2019-01-02T21:07:00.167Z,99931.21
2019-01-02T21:12:05.449Z,99930.60
2019-01-02T21:17:10.947Z,99939.41
2019-01-02T21:22:17.007Z,99943.52
2019-01-02T21:27:22.473Z,99938.16
2019-01-02T21:32:28.336Z,99934.02
2019-01-02T21:37:33.507Z,99931.13
2019-01-02T21:42:39.454Z,99936.38
2019-01-02T21:47:44.750Z,99935.08
2019-01-02T21:52:49.932Z,99937.41
2019-01-02T21:57:55.568Z,99930.98
2019-01-02T22:03:01.200Z,99931.94
2019-01-02T22:08:06.377Z,99926.81
2019-01-02T22:13:11.951Z,99934.20
2019-01-02T22:18:18.093Z,99933.13
2019-01-02T22:23:23.273Z,99932.18
2019-01-02T22:28:28.457Z,99939.45
2019-01-02T22:33:33.841Z,99942.36
2019-01-02T22:38:39.634Z,99939.84
2019-01-02T22:43:44.829Z,99956.73
2019-01-02T22:48:50.142Z,99956.23
2019-01-02T22:53:55.357Z,99957.41
2019-01-02T22:59:00.586Z,99968.66
2019-01-02T23:04:41.105Z,99967.52
2019-01-02T23:10:04.216Z,99973.09
2019-01-02T23:15:34.577Z,99978.35
2019-01-02T23:20:57.701Z,99987.58
2019-01-02T23:26:27.329Z,99988.91
2019-01-02T23:31:51.184Z,99993.11
2019-01-02T23:37:15.654Z,99984.73
2019-01-02T23:42:45.883Z,99997.58
2019-01-02T23:48:17.332Z,99999.80
2019-01-02T23:53:54.401Z,99999.80
2019-01-02T23:59:30.521Z,100018.30
